Wyoming, Pennsylvania
Current Conditions -  °F | °C
As of 6:54 AM on Friday 24 Oct 2014 (Local Time) from KAVP Reporting Station
Overcast Overcast  
Wind Chill: 51°   Ceiling: 2900
Heat Index: 51°   Visibility: 10mi
Dew Point: 41°   Wind: 9mph
Humidity: 68%   Direction: 350°N
Pressure: 29.89"   Gusts: NA
Location:  41.31°N, 75.84°W
Report Text: KAVP 241054Z AUTO 35008KT 10SM BKN029 OVC037 11/05 A2989 RMK AO2 SLP122 T01060050
Loading
Personal Weather Stations






























Interactive Weather Map
Tropical Storm Tracking
New forecast layout! Learn more

10-Day Weather Forecast

Advertisements
Track Severe Weather on mobile